sensor_id;sensor_type;location;lat;lon;timestamp;P1;durP1;ratioP1;P2;durP2;ratioP2
19836;SDS011;10079;55.740;37.662;2023-09-19T10:43:25;16.80;;;11.93;;
19836;SDS011;10079;55.740;37.662;2023-09-19T10:56:51;19.03;;;12.43;;
19836;SDS011;10079;55.740;37.662;2023-09-19T11:10:10;18.75;;;12.13;;
19836;SDS011;10079;55.740;37.662;2023-09-19T11:12:54;17.33;;;11.60;;
19836;SDS011;10079;55.740;37.662;2023-09-19T11:29:24;18.98;;;11.57;;
19836;SDS011;10079;55.740;37.662;2023-09-19T11:32:08;18.87;;;12.40;;
19836;SDS011;10079;55.740;37.662;2023-09-19T11:35:07;18.70;;;11.87;;
19836;SDS011;10079;55.740;37.662;2023-09-19T11:38:00;15.77;;;12.23;;
19836;SDS011;10079;55.740;37.662;2023-09-19T11:40:46;16.57;;;11.40;;
19836;SDS011;10079;55.740;37.662;2023-09-19T11:43:39;16.53;;;11.90;;
19836;SDS011;10079;55.740;37.662;2023-09-19T11:46:25;15.57;;;10.57;;
19836;SDS011;10079;55.740;37.662;2023-09-19T11:49:08;19.50;;;10.70;;
19836;SDS011;10079;55.740;37.662;2023-09-19T11:51:53;16.63;;;10.73;;
19836;SDS011;10079;55.740;37.662;2023-09-19T11:54:47;16.53;;;11.10;;
19836;SDS011;10079;55.740;37.662;2023-09-19T11:57:30;17.17;;;12.00;;
19836;SDS011;10079;55.740;37.662;2023-09-19T12:00:20;17.33;;;11.30;;
19836;SDS011;10079;55.740;37.662;2023-09-19T12:03:09;21.80;;;11.37;;
19836;SDS011;10079;55.740;37.662;2023-09-19T12:05:51;17.40;;;12.27;;
19836;SDS011;10079;55.740;37.662;2023-09-19T12:08:47;19.83;;;12.67;;
19836;SDS011;10079;55.740;37.662;2023-09-19T12:11:30;18.60;;;12.80;;
19836;SDS011;10079;55.740;37.662;2023-09-19T12:14:21;14.13;;;10.77;;
19836;SDS011;10079;55.740;37.662;2023-09-19T12:17:03;21.47;;;11.13;;
19836;SDS011;10079;55.740;37.662;2023-09-19T12:19:50;16.63;;;11.47;;
19836;SDS011;10079;55.740;37.662;2023-09-19T12:22:39;17.33;;;11.97;;
19836;SDS011;10079;55.740;37.662;2023-09-19T12:25:22;15.60;;;11.10;;
19836;SDS011;10079;55.740;37.662;2023-09-19T12:28:04;14.97;;;11.50;;
19836;SDS011;10079;55.740;37.662;2023-09-19T12:30:47;18.13;;;11.77;;
19836;SDS011;10079;55.740;37.662;2023-09-19T12:33:30;14.97;;;11.33;;
19836;SDS011;10079;55.740;37.662;2023-09-19T12:36:20;16.00;;;11.60;;
19836;SDS011;10079;55.740;37.662;2023-09-19T12:49:34;16.02;;;11.95;;
19836;SDS011;10079;55.740;37.662;2023-09-19T12:52:15;14.48;;;11.48;;
19836;SDS011;10079;55.740;37.662;2023-09-19T12:54:57;14.57;;;12.27;;
19836;SDS011;10079;55.740;37.662;2023-09-19T13:01:02;19.50;;;11.67;;
19836;SDS011;10079;55.740;37.662;2023-09-19T13:17:43;16.58;;;10.90;;
19836;SDS011;10079;55.740;37.662;2023-09-19T13:20:25;18.35;;;11.05;;
19836;SDS011;10079;55.740;37.662;2023-09-19T13:23:08;13.90;;;10.30;;
19836;SDS011;10079;55.740;37.662;2023-09-19T13:25:51;13.88;;;10.68;;
19836;SDS011;10079;55.740;37.662;2023-09-19T13:39:16;16.87;;;10.52;;
19836;SDS011;10079;55.740;37.662;2023-09-19T13:42:00;16.12;;;10.70;;
19836;SDS011;10079;55.740;37.662;2023-09-19T13:44:42;15.30;;;10.33;;
19836;SDS011;10079;55.740;37.662;2023-09-19T13:47:26;15.38;;;10.13;;
19836;SDS011;10079;55.740;37.662;2023-09-19T13:50:19;16.73;;;10.03;;
19836;SDS011;10079;55.740;37.662;2023-09-19T13:53:05;20.13;;;10.87;;
19836;SDS011;10079;55.740;37.662;2023-09-19T13:55:49;13.63;;;10.17;;
19836;SDS011;10079;55.740;37.662;2023-09-19T14:09:21;14.48;;;9.60;;
19836;SDS011;10079;55.740;37.662;2023-09-19T14:12:02;15.27;;;10.75;;
19836;SDS011;10079;55.740;37.662;2023-09-19T14:14:44;17.70;;;9.82;;
19836;SDS011;10079;55.740;37.662;2023-09-19T14:17:28;14.50;;;9.37;;
19836;SDS011;10079;55.740;37.662;2023-09-19T14:20:11;13.97;;;9.20;;
19836;SDS011;10079;55.740;37.662;2023-09-19T14:22:55;14.50;;;9.70;;
19836;SDS011;10079;55.740;37.662;2023-09-19T14:25:38;12.87;;;9.47;;
19836;SDS011;10079;55.740;37.662;2023-09-19T14:28:20;12.87;;;9.87;;
19836;SDS011;10079;55.740;37.662;2023-09-19T14:31:05;13.20;;;9.90;;
19836;SDS011;10079;55.740;37.662;2023-09-19T14:33:52;11.00;;;9.40;;
19836;SDS011;10079;55.740;37.662;2023-09-19T14:36:28;12.67;;;10.10;;
19836;SDS011;10079;55.740;37.662;2023-09-19T14:39:09;13.27;;;9.40;;
19836;SDS011;10079;55.740;37.662;2023-09-19T14:41:50;13.20;;;9.47;;
19836;SDS011;10079;55.740;37.662;2023-09-19T14:44:44;14.43;;;9.93;;
19836;SDS011;10079;55.740;37.662;2023-09-19T14:47:37;12.57;;;9.23;;
19836;SDS011;10079;55.740;37.662;2023-09-19T14:50:30;16.17;;;9.23;;
19836;SDS011;10079;55.740;37.662;2023-09-19T14:53:14;14.53;;;9.63;;
19836;SDS011;10079;55.740;37.662;2023-09-19T14:56:01;10.40;;;9.10;;
19836;SDS011;10079;55.740;37.662;2023-09-19T14:58:42;17.30;;;9.63;;
19836;SDS011;10079;55.740;37.662;2023-09-19T15:01:23;13.10;;;9.13;;
19836;SDS011;10079;55.740;37.662;2023-09-19T15:04:14;16.73;;;9.77;;
19836;SDS011;10079;55.740;37.662;2023-09-19T15:06:59;11.90;;;9.33;;
19836;SDS011;10079;55.740;37.662;2023-09-19T15:09:50;13.40;;;10.67;;
19836;SDS011;10079;55.740;37.662;2023-09-19T15:12:33;13.37;;;10.40;;
19836;SDS011;10079;55.740;37.662;2023-09-19T15:15:19;14.93;;;10.63;;
19836;SDS011;10079;55.740;37.662;2023-09-19T15:18:05;16.20;;;10.97;;
19836;SDS011;10079;55.740;37.662;2023-09-19T15:20:50;18.83;;;10.93;;
19836;SDS011;10079;55.740;37.662;2023-09-19T15:23:33;15.23;;;11.07;;
19836;SDS011;10079;55.740;37.662;2023-09-19T15:26:15;18.17;;;11.00;;
19836;SDS011;10079;55.740;37.662;2023-09-19T15:28:59;19.47;;;11.10;;
19836;SDS011;10079;55.740;37.662;2023-09-19T15:31:55;16.33;;;11.43;;
19836;SDS011;10079;55.740;37.662;2023-09-19T15:34:35;20.63;;;12.30;;
19836;SDS011;10079;55.740;37.662;2023-09-19T15:37:25;19.40;;;12.10;;
19836;SDS011;10079;55.740;37.662;2023-09-19T15:40:09;18.23;;;12.23;;
19836;SDS011;10079;55.740;37.662;2023-09-19T15:42:50;20.00;;;12.43;;
19836;SDS011;10079;55.740;37.662;2023-09-19T15:56:11;22.47;;;12.67;;
19836;SDS011;10079;55.740;37.662;2023-09-19T15:58:53;17.27;;;11.87;;
19836;SDS011;10079;55.740;37.662;2023-09-19T16:01:48;22.37;;;12.67;;
19836;SDS011;10079;55.740;37.662;2023-09-19T16:04:33;19.37;;;13.57;;
19836;SDS011;10079;55.740;37.662;2023-09-19T16:07:15;20.17;;;13.27;;
19836;SDS011;10079;55.740;37.662;2023-09-19T16:09:59;18.93;;;12.67;;
19836;SDS011;10079;55.740;37.662;2023-09-19T16:12:45;22.27;;;13.33;;
19836;SDS011;10079;55.740;37.662;2023-09-19T16:15:39;22.57;;;12.83;;
19836;SDS011;10079;55.740;37.662;2023-09-19T16:18:21;23.83;;;12.83;;
19836;SDS011;10079;55.740;37.662;2023-09-19T16:21:11;23.60;;;13.53;;
19836;SDS011;10079;55.740;37.662;2023-09-19T16:23:53;25.77;;;13.47;;
19836;SDS011;10079;55.740;37.662;2023-09-19T16:26:41;24.43;;;12.93;;
19836;SDS011;10079;55.740;37.662;2023-09-19T16:29:25;22.57;;;13.33;;
19836;SDS011;10079;55.740;37.662;2023-09-19T16:42:57;24.43;;;14.30;;
19836;SDS011;10079;55.740;37.662;2023-09-19T16:45:39;23.00;;;13.03;;
19836;SDS011;10079;55.740;37.662;2023-09-19T16:48:21;25.47;;;13.37;;
19836;SDS011;10079;55.740;37.662;2023-09-19T16:51:03;22.70;;;14.23;;
19836;SDS011;10079;55.740;37.662;2023-09-19T16:53:58;23.27;;;14.63;;
19836;SDS011;10079;55.740;37.662;2023-09-19T16:56:43;24.40;;;13.50;;
19836;SDS011;10079;55.740;37.662;2023-09-19T16:59:27;21.20;;;12.97;;
19836;SDS011;10079;55.740;37.662;2023-09-19T17:02:11;25.80;;;14.07;;
19836;SDS011;10079;55.740;37.662;2023-09-19T17:04:53;26.33;;;13.63;;
19836;SDS011;10079;55.740;37.662;2023-09-19T17:07:34;23.33;;;14.63;;
19836;SDS011;10079;55.740;37.662;2023-09-19T17:10:15;23.20;;;14.47;;
19836;SDS011;10079;55.740;37.662;2023-09-19T17:12:56;28.13;;;14.60;;
19836;SDS011;10079;55.740;37.662;2023-09-19T17:15:41;25.60;;;13.80;;
19836;SDS011;10079;55.740;37.662;2023-09-19T17:18:22;21.80;;;13.97;;
19836;SDS011;10079;55.740;37.662;2023-09-19T17:21:12;23.07;;;13.60;;
19836;SDS011;10079;55.740;37.662;2023-09-19T17:24:05;21.47;;;14.07;;
19836;SDS011;10079;55.740;37.662;2023-09-19T17:26:46;27.83;;;14.33;;
19836;SDS011;10079;55.740;37.662;2023-09-19T17:29:32;27.63;;;16.23;;
19836;SDS011;10079;55.740;37.662;2023-09-19T17:32:14;29.13;;;14.97;;
19836;SDS011;10079;55.740;37.662;2023-09-19T17:34:59;23.50;;;14.43;;
19836;SDS011;10079;55.740;37.662;2023-09-19T17:37:40;23.90;;;15.17;;
19836;SDS011;10079;55.740;37.662;2023-09-19T17:40:29;26.03;;;14.00;;
19836;SDS011;10079;55.740;37.662;2023-09-19T17:43:11;20.53;;;13.43;;
19836;SDS011;10079;55.740;37.662;2023-09-19T17:45:52;22.53;;;14.37;;
19836;SDS011;10079;55.740;37.662;2023-09-19T17:48:44;24.83;;;15.23;;
19836;SDS011;10079;55.740;37.662;2023-09-19T17:51:35;23.07;;;13.73;;
19836;SDS011;10079;55.740;37.662;2023-09-19T17:54:17;25.27;;;15.03;;
19836;SDS011;10079;55.740;37.662;2023-09-19T17:57:02;24.13;;;14.50;;
19836;SDS011;10079;55.740;37.662;2023-09-19T17:59:52;25.93;;;13.50;;
19836;SDS011;10079;55.740;37.662;2023-09-19T18:02:34;23.67;;;13.23;;
19836;SDS011;10079;55.740;37.662;2023-09-19T18:05:19;22.03;;;14.10;;
19836;SDS011;10079;55.740;37.662;2023-09-19T18:08:00;25.57;;;13.67;;
19836;SDS011;10079;55.740;37.662;2023-09-19T18:10:41;17.50;;;12.60;;
19836;SDS011;10079;55.740;37.662;2023-09-19T18:13:35;20.60;;;12.73;;
19836;SDS011;10079;55.740;37.662;2023-09-19T18:16:17;23.03;;;13.70;;
19836;SDS011;10079;55.740;37.662;2023-09-19T18:18:58;18.97;;;12.80;;
19836;SDS011;10079;55.740;37.662;2023-09-19T18:21:51;21.27;;;12.67;;
19836;SDS011;10079;55.740;37.662;2023-09-19T18:24:35;21.50;;;12.57;;
19836;SDS011;10079;55.740;37.662;2023-09-19T18:27:16;18.20;;;12.43;;
19836;SDS011;10079;55.740;37.662;2023-09-19T18:30:10;20.40;;;12.00;;
19836;SDS011;10079;55.740;37.662;2023-09-19T18:33:07;16.93;;;11.77;;
19836;SDS011;10079;55.740;37.662;2023-09-19T18:36:02;21.37;;;13.47;;
19836;SDS011;10079;55.740;37.662;2023-09-19T18:38:46;19.57;;;12.03;;
19836;SDS011;10079;55.740;37.662;2023-09-19T19:02:30;16.33;;;11.03;;
19836;SDS011;10079;55.740;37.662;2023-09-19T19:05:12;20.23;;;11.73;;
19836;SDS011;10079;55.740;37.662;2023-09-19T19:08:04;22.07;;;11.60;;
19836;SDS011;10079;55.740;37.662;2023-09-19T19:10:56;18.87;;;12.40;;
19836;SDS011;10079;55.740;37.662;2023-09-19T19:13:39;18.87;;;10.97;;
19836;SDS011;10079;55.740;37.662;2023-09-19T19:16:29;21.53;;;12.03;;
19836;SDS011;10079;55.740;37.662;2023-09-19T19:19:11;16.60;;;11.93;;
19836;SDS011;10079;55.740;37.662;2023-09-19T19:21:52;19.23;;;11.43;;
19836;SDS011;10079;55.740;37.662;2023-09-19T19:24:36;15.80;;;11.27;;
19836;SDS011;10079;55.740;37.662;2023-09-19T19:37:57;17.47;;;11.70;;
19836;SDS011;10079;55.740;37.662;2023-09-19T19:40:41;19.57;;;12.07;;
19836;SDS011;10079;55.740;37.662;2023-09-19T19:43:22;17.60;;;11.70;;
19836;SDS011;10079;55.740;37.662;2023-09-19T19:46:12;18.27;;;11.80;;
19836;SDS011;10079;55.740;37.662;2023-09-19T19:48:53;17.10;;;11.73;;
19836;SDS011;10079;55.740;37.662;2023-09-19T20:02:18;17.17;;;12.17;;
19836;SDS011;10079;55.740;37.662;2023-09-19T20:05:00;15.47;;;10.90;;
19836;SDS011;10079;55.740;37.662;2023-09-19T20:07:52;17.77;;;11.97;;
19836;SDS011;10079;55.740;37.662;2023-09-19T20:10:38;18.33;;;11.50;;
19836;SDS011;10079;55.740;37.662;2023-09-19T20:24:06;17.17;;;10.77;;
19836;SDS011;10079;55.740;37.662;2023-09-19T20:26:50;16.90;;;11.73;;
19836;SDS011;10079;55.740;37.662;2023-09-19T20:29:33;17.23;;;10.40;;
19836;SDS011;10079;55.740;37.662;2023-09-19T20:32:14;19.73;;;10.87;;
19836;SDS011;10079;55.740;37.662;2023-09-19T20:34:54;14.70;;;10.40;;
19836;SDS011;10079;55.740;37.662;2023-09-19T20:37:44;15.20;;;11.17;;
19836;SDS011;10079;55.740;37.662;2023-09-19T20:40:26;17.53;;;10.60;;
19836;SDS011;10079;55.740;37.662;2023-09-19T20:43:07;16.63;;;10.20;;
19836;SDS011;10079;55.740;37.662;2023-09-19T20:45:48;16.70;;;11.03;;
19836;SDS011;10079;55.740;37.662;2023-09-19T20:48:28;16.33;;;10.47;;
19836;SDS011;10079;55.740;37.662;2023-09-19T20:51:10;14.17;;;9.60;;
19836;SDS011;10079;55.740;37.662;2023-09-19T20:53:52;13.60;;;9.70;;
19836;SDS011;10079;55.740;37.662;2023-09-19T20:56:35;14.07;;;9.77;;
19836;SDS011;10079;55.740;37.662;2023-09-19T20:59:16;12.27;;;9.70;;
19836;SDS011;10079;55.740;37.662;2023-09-19T21:02:01;15.00;;;8.83;;
19836;SDS011;10079;55.740;37.662;2023-09-19T21:15:12;13.30;;;8.80;;
19836;SDS011;10079;55.740;37.662;2023-09-19T21:18:05;10.80;;;8.53;;
19836;SDS011;10079;55.740;37.662;2023-09-19T21:20:54;12.70;;;8.73;;
19836;SDS011;10079;55.740;37.662;2023-09-19T21:34:05;12.60;;;8.20;;
19836;SDS011;10079;55.740;37.662;2023-09-19T21:36:50;11.67;;;7.83;;
19836;SDS011;10079;55.740;37.662;2023-09-19T21:39:42;12.27;;;7.77;;
19836;SDS011;10079;55.740;37.662;2023-09-19T21:53:00;12.10;;;7.83;;
19836;SDS011;10079;55.740;37.662;2023-09-19T22:06:27;10.63;;;7.93;;
19836;SDS011;10079;55.740;37.662;2023-09-19T22:09:11;9.73;;;7.50;;
19836;SDS011;10079;55.740;37.662;2023-09-19T22:11:51;11.33;;;7.13;;
19836;SDS011;10079;55.740;37.662;2023-09-19T22:14:41;9.47;;;7.90;;
19836;SDS011;10079;55.740;37.662;2023-09-19T22:17:22;11.73;;;7.33;;
19836;SDS011;10079;55.740;37.662;2023-09-19T22:20:06;11.17;;;7.23;;
19836;SDS011;10079;55.740;37.662;2023-09-19T22:22:51;10.10;;;7.67;;
19836;SDS011;10079;55.740;37.662;2023-09-19T22:25:32;9.70;;;7.67;;
19836;SDS011;10079;55.740;37.662;2023-09-19T22:28:25;11.90;;;7.17;;
19836;SDS011;10079;55.740;37.662;2023-09-19T22:31:14;11.07;;;7.83;;
19836;SDS011;10079;55.740;37.662;2023-09-19T22:33:56;10.30;;;6.90;;
19836;SDS011;10079;55.740;37.662;2023-09-19T22:47:12;10.73;;;7.60;;
19836;SDS011;10079;55.740;37.662;2023-09-19T22:49:56;8.63;;;7.43;;
19836;SDS011;10079;55.740;37.662;2023-09-19T22:52:45;11.73;;;7.00;;
19836;SDS011;10079;55.740;37.662;2023-09-19T22:55:26;11.23;;;7.33;;
19836;SDS011;10079;55.740;37.662;2023-09-19T23:08:41;9.70;;;7.20;;
19836;SDS011;10079;55.740;37.662;2023-09-19T23:11:22;8.20;;;6.97;;
19836;SDS011;10079;55.740;37.662;2023-09-19T23:14:07;9.50;;;6.70;;
19836;SDS011;10079;55.740;37.662;2023-09-19T23:16:50;10.33;;;7.40;;
19836;SDS011;10079;55.740;37.662;2023-09-19T23:19:30;9.03;;;7.40;;
19836;SDS011;10079;55.740;37.662;2023-09-19T23:22:11;12.50;;;7.30;;
19836;SDS011;10079;55.740;37.662;2023-09-19T23:24:52;10.23;;;6.87;;
19836;SDS011;10079;55.740;37.662;2023-09-19T23:27:33;9.07;;;7.10;;
19836;SDS011;10079;55.740;37.662;2023-09-19T23:30:13;10.60;;;7.67;;
19836;SDS011;10079;55.740;37.662;2023-09-19T23:32:54;10.47;;;7.50;;
19836;SDS011;10079;55.740;37.662;2023-09-19T23:35:44;10.27;;;7.63;;
19836;SDS011;10079;55.740;37.662;2023-09-19T23:59:30;11.63;;;7.70;;
